sensor_id;sensor_type;location;lat;lon;timestamp;pressure;altitude;pressure_sealevel;temperature;humidity
55263;BME280;41125;48.752;9.168;2023-01-29T00:00:31;97909.19;;;-1.55;83.05
55263;BME280;41125;48.752;9.168;2023-01-29T00:01:06;97916.34;;;-1.55;83.46
55263;BME280;41125;48.752;9.168;2023-01-29T00:01:38;97913.88;;;-1.57;82.78
55263;BME280;41125;48.752;9.168;2023-01-29T00:02:12;97917.56;;;-1.58;83.23
55263;BME280;41125;48.752;9.168;2023-01-29T00:02:49;97918.38;;;-1.57;83.10
55263;BME280;41125;48.752;9.168;2023-01-29T00:03:20;97915.91;;;-1.59;82.97
55263;BME280;41125;48.752;9.168;2023-01-29T00:03:51;97915.91;;;-1.59;83.17
55263;BME280;41125;48.752;9.168;2023-01-29T00:04:23;97917.19;;;-1.55;83.38
55263;BME280;41125;48.752;9.168;2023-01-29T00:04:54;97923.13;;;-1.53;83.55
55263;BME280;41125;48.752;9.168;2023-01-29T00:05:26;97921.09;;;-1.51;83.16
55263;BME280;41125;48.752;9.168;2023-01-29T00:05:57;97921.09;;;-1.51;83.25
55263;BME280;41125;48.752;9.168;2023-01-29T00:06:32;97929.09;;;-1.51;83.16
55263;BME280;41125;48.752;9.168;2023-01-29T00:07:03;97921.28;;;-1.52;83.04
55263;BME280;41125;48.752;9.168;2023-01-29T00:07:35;97915.78;;;-1.51;83.47
55263;BME280;41125;48.752;9.168;2023-01-29T00:08:06;97922.94;;;-1.51;83.18
55263;BME280;41125;48.752;9.168;2023-01-29T00:08:38;97922.75;;;-1.50;83.22
55263;BME280;41125;48.752;9.168;2023-01-29T00:09:10;97919.28;;;-1.50;83.18
55263;BME280;41125;48.752;9.168;2023-01-29T00:09:42;97926.44;;;-1.51;83.47
55263;BME280;41125;48.752;9.168;2023-01-29T00:10:13;97924.78;;;-1.52;83.28
55263;BME280;41125;48.752;9.168;2023-01-29T00:10:45;97922.94;;;-1.51;83.39
55263;BME280;41125;48.752;9.168;2023-01-29T00:11:17;97929.09;;;-1.51;83.36
55263;BME280;41125;48.752;9.168;2023-01-29T00:11:50;97922.13;;;-1.52;83.44
55263;BME280;41125;48.752;9.168;2023-01-29T00:12:21;97918.44;;;-1.51;83.49
55263;BME280;41125;48.752;9.168;2023-01-29T00:12:53;97913.13;;;-1.51;83.74
55263;BME280;41125;48.752;9.168;2023-01-29T00:13:25;97913.13;;;-1.51;83.58
55263;BME280;41125;48.752;9.168;2023-01-29T00:13:56;97913.13;;;-1.51;83.89
55263;BME280;41125;48.752;9.168;2023-01-29T00:14:27;97917.44;;;-1.50;84.00
55263;BME280;41125;48.752;9.168;2023-01-29T00:14:59;97919.91;;;-1.48;83.95
55263;BME280;41125;48.752;9.168;2023-01-29T00:15:30;97921.56;;;-1.47;83.77
55263;BME280;41125;48.752;9.168;2023-01-29T00:16:04;97920.97;;;-1.43;83.91
55263;BME280;41125;48.752;9.168;2023-01-29T00:16:35;97916.88;;;-1.39;83.75
55263;BME280;41125;48.752;9.168;2023-01-29T00:17:06;97922.47;;;-1.33;83.37
55263;BME280;41125;48.752;9.168;2023-01-29T00:17:38;97924.50;;;-1.36;82.63
55263;BME280;41125;48.752;9.168;2023-01-29T00:18:10;97926.34;;;-1.36;82.88
55263;BME280;41125;48.752;9.168;2023-01-29T00:18:41;97920.59;;;-1.40;82.66
55263;BME280;41125;48.752;9.168;2023-01-29T00:19:12;97918.50;;;-1.44;82.78
55263;BME280;41125;48.752;9.168;2023-01-29T00:19:45;97919.34;;;-1.44;83.17
55263;BME280;41125;48.752;9.168;2023-01-29T00:20:17;97924.22;;;-1.47;83.65
55263;BME280;41125;48.752;9.168;2023-01-29T00:20:48;97929.53;;;-1.47;83.65
55263;BME280;41125;48.752;9.168;2023-01-29T00:21:23;97920.91;;;-1.49;83.56
55263;BME280;41125;48.752;9.168;2023-01-29T00:21:55;97920.91;;;-1.49;83.60
55263;BME280;41125;48.752;9.168;2023-01-29T00:22:29;97922.56;;;-1.48;84.13
55263;BME280;41125;48.752;9.168;2023-01-29T00:23:00;97918.06;;;-1.48;84.08
55263;BME280;41125;48.752;9.168;2023-01-29T00:23:31;97920.53;;;-1.46;83.99
55263;BME280;41125;48.752;9.168;2023-01-29T00:24:03;97918.50;;;-1.44;84.00
55263;BME280;41125;48.752;9.168;2023-01-29T00:24:35;97917.31;;;-1.42;84.05
55263;BME280;41125;48.752;9.168;2023-01-29T00:25:09;97910.41;;;-1.29;83.10
55263;BME280;41125;48.752;9.168;2023-01-29T00:25:42;97911.69;;;-1.25;82.95
55263;BME280;41125;48.752;9.168;2023-01-29T00:26:15;97919.87;;;-1.27;82.41
55263;BME280;41125;48.752;9.168;2023-01-29T00:26:47;97914.72;;;-1.28;82.59
55263;BME280;41125;48.752;9.168;2023-01-29T00:27:20;97910.81;;;-1.32;82.30
55263;BME280;41125;48.752;9.168;2023-01-29T00:27:54;97910.34;;;-1.36;82.38
55263;BME280;41125;48.752;9.168;2023-01-29T00:28:26;97915.06;;;-1.38;82.57
55263;BME280;41125;48.752;9.168;2023-01-29T00:28:57;97914.47;;;-1.33;82.96
55263;BME280;41125;48.752;9.168;2023-01-29T00:29:30;97915.13;;;-1.31;82.81
55263;BME280;41125;48.752;9.168;2023-01-29T00:30:02;97914.09;;;-1.30;82.30
55263;BME280;41125;48.752;9.168;2023-01-29T00:30:41;97912.84;;;-1.35;82.12
55263;BME280;41125;48.752;9.168;2023-01-29T00:31:16;97912.37;;;-1.38;82.20
55263;BME280;41125;48.752;9.168;2023-01-29T00:31:47;97920.97;;;-1.43;82.39
55263;BME280;41125;48.752;9.168;2023-01-29T00:32:18;97917.03;;;-1.47;82.21
55263;BME280;41125;48.752;9.168;2023-01-29T00:32:50;97923.78;;;-1.51;82.31
55263;BME280;41125;48.752;9.168;2023-01-29T00:33:21;97921.88;;;-1.57;82.92
55263;BME280;41125;48.752;9.168;2023-01-29T00:33:53;97922.06;;;-1.58;82.92
55263;BME280;41125;48.752;9.168;2023-01-29T00:34:25;97919.59;;;-1.60;83.33
55263;BME280;41125;48.752;9.168;2023-01-29T00:34:57;97919.78;;;-1.61;83.16
55263;BME280;41125;48.752;9.168;2023-01-29T00:35:28;97925.91;;;-1.61;83.24
55263;BME280;41125;48.752;9.168;2023-01-29T00:36:07;97920.97;;;-1.64;83.40
55263;BME280;41125;48.752;9.168;2023-01-29T00:36:39;97925.66;;;-1.66;83.72
55263;BME280;41125;48.752;9.168;2023-01-29T00:37:10;97920.72;;;-1.69;83.51
55263;BME280;41125;48.752;9.168;2023-01-29T00:37:42;97925.03;;;-1.68;83.77
55263;BME280;41125;48.752;9.168;2023-01-29T00:38:14;97919.69;;;-1.68;84.21
55263;BME280;41125;48.752;9.168;2023-01-29T00:38:46;97920.34;;;-1.66;84.32
55263;BME280;41125;48.752;9.168;2023-01-29T00:39:24;97915.00;;;-1.66;84.37
55263;BME280;41125;48.752;9.168;2023-01-29T00:39:56;97907.47;;;-1.62;84.42
55263;BME280;41125;48.752;9.168;2023-01-29T00:40:28;97910.97;;;-1.62;84.42
55263;BME280;41125;48.752;9.168;2023-01-29T00:41:20;97908.94;;;-1.60;84.41
55263;BME280;41125;48.752;9.168;2023-01-29T00:42:10;97906.09;;;-1.58;84.48
55263;BME280;41125;48.752;9.168;2023-01-29T00:43:00;97911.84;;;-1.55;84.16
55263;BME280;41125;48.752;9.168;2023-01-29T00:43:49;97906.53;;;-1.55;83.81
55263;BME280;41125;48.752;9.168;2023-01-29T00:44:42;97904.69;;;-1.54;84.09
55263;BME280;41125;48.752;9.168;2023-01-29T00:45:27;97906.53;;;-1.55;84.07
55263;BME280;41125;48.752;9.168;2023-01-29T00:45:59;97918.00;;;-1.54;83.97
55263;BME280;41125;48.752;9.168;2023-01-29T00:46:30;97910.84;;;-1.54;83.66
55263;BME280;41125;48.752;9.168;2023-01-29T00:47:02;97913.50;;;-1.54;83.62
55263;BME280;41125;48.752;9.168;2023-01-29T00:47:34;97912.69;;;-1.54;83.84
55263;BME280;41125;48.752;9.168;2023-01-29T00:48:06;97912.69;;;-1.54;83.78
55263;BME280;41125;48.752;9.168;2023-01-29T00:48:37;97913.50;;;-1.54;83.92
55263;BME280;41125;48.752;9.168;2023-01-29T00:49:08;97909.81;;;-1.53;83.86
55263;BME280;41125;48.752;9.168;2023-01-29T00:49:40;97915.16;;;-1.53;83.58
55263;BME280;41125;48.752;9.168;2023-01-29T00:50:12;97913.50;;;-1.54;83.56
55263;BME280;41125;48.752;9.168;2023-01-29T00:50:43;97909.00;;;-1.53;83.63
55263;BME280;41125;48.752;9.168;2023-01-29T00:51:17;97909.00;;;-1.53;83.68
55263;BME280;41125;48.752;9.168;2023-01-29T00:51:49;97908.19;;;-1.54;83.71
55263;BME280;41125;48.752;9.168;2023-01-29T00:52:41;97914.31;;;-1.53;83.85
55263;BME280;41125;48.752;9.168;2023-01-29T00:53:13;97917.81;;;-1.53;84.00
55263;BME280;41125;48.752;9.168;2023-01-29T00:53:44;97909.81;;;-1.53;84.14
55263;BME280;41125;48.752;9.168;2023-01-29T00:54:15;97911.47;;;-1.52;84.15
55263;BME280;41125;48.752;9.168;2023-01-29T00:54:46;97912.28;;;-1.51;84.00
55263;BME280;41125;48.752;9.168;2023-01-29T00:55:18;97911.47;;;-1.52;83.81
55263;BME280;41125;48.752;9.168;2023-01-29T00:55:49;97908.81;;;-1.52;84.18
55263;BME280;41125;48.752;9.168;2023-01-29T00:56:20;97908.81;;;-1.52;83.97
55263;BME280;41125;48.752;9.168;2023-01-29T00:56:51;97912.28;;;-1.51;83.76
55263;BME280;41125;48.752;9.168;2023-01-29T00:57:24;97905.31;;;-1.52;83.70
55263;BME280;41125;48.752;9.168;2023-01-29T00:57:56;97910.19;;;-1.56;83.79
55263;BME280;41125;48.752;9.168;2023-01-29T00:58:27;97908.56;;;-1.57;83.74
55263;BME280;41125;48.752;9.168;2023-01-29T00:59:04;97911.22;;;-1.57;83.91
55263;BME280;41125;48.752;9.168;2023-01-29T00:59:35;97908.56;;;-1.57;84.06
55263;BME280;41125;48.752;9.168;2023-01-29T01:00:10;97912.22;;;-1.58;83.82
55263;BME280;41125;48.752;9.168;2023-01-29T01:00:41;97914.25;;;-1.60;83.81
55263;BME280;41125;48.752;9.168;2023-01-29T01:01:14;97913.06;;;-1.57;83.79
55263;BME280;41125;48.752;9.168;2023-01-29T01:01:45;97913.88;;;-1.57;83.77
55263;BME280;41125;48.752;9.168;2023-01-29T01:02:35;97911.84;;;-1.55;83.93
55263;BME280;41125;48.752;9.168;2023-01-29T01:03:24;97906.91;;;-1.58;84.31
55263;BME280;41125;48.752;9.168;2023-01-29T01:03:55;97911.59;;;-1.60;84.75
55263;BME280;41125;48.752;9.168;2023-01-29T01:04:26;97906.28;;;-1.60;84.73
55263;BME280;41125;48.752;9.168;2023-01-29T01:04:57;97907.28;;;-1.61;84.89
55263;BME280;41125;48.752;9.168;2023-01-29T01:05:33;97905.63;;;-1.62;85.01
55263;BME280;41125;48.752;9.168;2023-01-29T01:06:06;97906.66;;;-1.63;85.14
55263;BME280;41125;48.752;9.168;2023-01-29T01:06:41;97906.66;;;-1.63;85.10
55263;BME280;41125;48.752;9.168;2023-01-29T01:07:12;97911.78;;;-1.61;84.93
55263;BME280;41125;48.752;9.168;2023-01-29T01:07:46;97913.44;;;-1.60;85.22
55263;BME280;41125;48.752;9.168;2023-01-29T01:08:17;97908.09;;;-1.60;84.83
55263;BME280;41125;48.752;9.168;2023-01-29T01:09:08;97910.59;;;-1.59;84.83
55263;BME280;41125;48.752;9.168;2023-01-29T01:09:58;97917.56;;;-1.58;84.76
55263;BME280;41125;48.752;9.168;2023-01-29T01:11:01;97908.56;;;-1.57;84.89
55263;BME280;41125;48.752;9.168;2023-01-29T01:11:32;97911.22;;;-1.57;84.72
55263;BME280;41125;48.752;9.168;2023-01-29T01:12:06;97913.88;;;-1.57;84.57
55263;BME280;41125;48.752;9.168;2023-01-29T01:12:37;97913.88;;;-1.57;84.59
55263;BME280;41125;48.752;9.168;2023-01-29T01:13:08;97911.22;;;-1.57;84.32
55263;BME280;41125;48.752;9.168;2023-01-29T01:13:40;97913.88;;;-1.57;84.56
55263;BME280;41125;48.752;9.168;2023-01-29T01:14:11;97905.69;;;-1.55;84.38
55263;BME280;41125;48.752;9.168;2023-01-29T01:14:43;97906.53;;;-1.55;84.05
55263;BME280;41125;48.752;9.168;2023-01-29T01:15:18;97913.50;;;-1.54;84.03
55263;BME280;41125;48.752;9.168;2023-01-29T01:15:49;97908.19;;;-1.54;83.88
55263;BME280;41125;48.752;9.168;2023-01-29T01:16:20;97908.19;;;-1.54;84.08
55263;BME280;41125;48.752;9.168;2023-01-29T01:16:51;97911.66;;;-1.53;83.82
55263;BME280;41125;48.752;9.168;2023-01-29T01:17:22;97909.19;;;-1.55;83.73
55263;BME280;41125;48.752;9.168;2023-01-29T01:17:55;97914.75;;;-1.50;83.60
55263;BME280;41125;48.752;9.168;2023-01-29T01:18:30;97917.69;;;-1.45;83.54
55263;BME280;41125;48.752;9.168;2023-01-29T01:19:03;97914.84;;;-1.37;82.51
55263;BME280;41125;48.752;9.168;2023-01-29T01:19:35;97913.84;;;-1.36;82.32
55263;BME280;41125;48.752;9.168;2023-01-29T01:20:07;97909.53;;;-1.37;81.93
55263;BME280;41125;48.752;9.168;2023-01-29T01:20:39;97912.84;;;-1.35;82.18
55263;BME280;41125;48.752;9.168;2023-01-29T01:21:11;97916.12;;;-1.32;81.84
55263;BME280;41125;48.752;9.168;2023-01-29T01:21:42;97918.16;;;-1.35;81.88
55263;BME280;41125;48.752;9.168;2023-01-29T01:22:20;97910.97;;;-1.41;81.26
55263;BME280;41125;48.752;9.168;2023-01-29T01:22:55;97912.34;;;-1.45;81.54
55263;BME280;41125;48.752;9.168;2023-01-29T01:23:29;97909.44;;;-1.50;81.61
55263;BME280;41125;48.752;9.168;2023-01-29T01:24:04;97915.78;;;-1.51;82.21
55263;BME280;41125;48.752;9.168;2023-01-29T01:24:36;97904.75;;;-1.48;82.38
55263;BME280;41125;48.752;9.168;2023-01-29T01:25:08;97914.03;;;-1.37;82.08
55263;BME280;41125;48.752;9.168;2023-01-29T01:25:40;97905.47;;;-1.32;81.71
55263;BME280;41125;48.752;9.168;2023-01-29T01:26:13;97914.53;;;-1.27;81.55
55263;BME280;41125;48.752;9.168;2023-01-29T01:26:45;97903.06;;;-1.27;81.18
55263;BME280;41125;48.752;9.168;2023-01-29T01:27:17;97907.56;;;-1.28;81.25
55263;BME280;41125;48.752;9.168;2023-01-29T01:27:52;97909.59;;;-1.30;81.14
55263;BME280;41125;48.752;9.168;2023-01-29T01:28:24;97907.94;;;-1.31;81.13
55263;BME280;41125;48.752;9.168;2023-01-29T01:28:56;97902.19;;;-1.35;81.14
55263;BME280;41125;48.752;9.168;2023-01-29T01:29:27;97904.22;;;-1.37;81.33
55263;BME280;41125;48.752;9.168;2023-01-29T01:29:59;97899.06;;;-1.38;81.76
55263;BME280;41125;48.752;9.168;2023-01-29T01:30:30;97903.19;;;-1.36;81.76
55263;BME280;41125;48.752;9.168;2023-01-29T01:31:10;97906.88;;;-1.37;81.54
55263;BME280;41125;48.752;9.168;2023-01-29T01:31:44;97905.84;;;-1.36;81.43
55263;BME280;41125;48.752;9.168;2023-01-29T01:32:15;97906.69;;;-1.35;81.46
55263;BME280;41125;48.752;9.168;2023-01-29T01:32:46;97899.31;;;-1.40;81.11
55263;BME280;41125;48.752;9.168;2023-01-29T01:33:18;97901.72;;;-1.45;81.32
55263;BME280;41125;48.752;9.168;2023-01-29T01:33:49;97902.91;;;-1.47;81.62
55263;BME280;41125;48.752;9.168;2023-01-29T01:34:21;97900.31;;;-1.41;81.50
55263;BME280;41125;48.752;9.168;2023-01-29T01:34:52;97903.00;;;-1.34;81.42
55263;BME280;41125;48.752;9.168;2023-01-29T01:35:23;97901.16;;;-1.33;81.12
55263;BME280;41125;48.752;9.168;2023-01-29T01:35:55;97902.19;;;-1.35;80.96
55263;BME280;41125;48.752;9.168;2023-01-29T01:36:31;97904.22;;;-1.37;81.18
55263;BME280;41125;48.752;9.168;2023-01-29T01:37:02;97904.63;;;-1.40;81.40
55263;BME280;41125;48.752;9.168;2023-01-29T01:37:34;97898.88;;;-1.37;81.23
55263;BME280;41125;48.752;9.168;2023-01-29T01:38:08;97905.97;;;-1.22;80.48
55263;BME280;41125;48.752;9.168;2023-01-29T01:38:40;97907.25;;;-1.18;79.97
55263;BME280;41125;48.752;9.168;2023-01-29T01:39:14;97906.16;;;-1.24;79.90
55263;BME280;41125;48.752;9.168;2023-01-29T01:39:46;97908.00;;;-1.24;80.35
55263;BME280;41125;48.752;9.168;2023-01-29T01:40:23;97904.72;;;-1.26;80.24
55263;BME280;41125;48.752;9.168;2023-01-29T01:40:54;97898.75;;;-1.28;80.27
55263;BME280;41125;48.752;9.168;2023-01-29T01:41:26;97908.78;;;-1.30;80.20
55263;BME280;41125;48.752;9.168;2023-01-29T01:41:58;97906.69;;;-1.35;80.29
55263;BME280;41125;48.752;9.168;2023-01-29T01:42:30;97914.84;;;-1.37;80.60
55263;BME280;41125;48.752;9.168;2023-01-29T01:43:01;97910.41;;;-1.29;80.56
55263;BME280;41125;48.752;9.168;2023-01-29T01:43:57;97910.84;;;-1.26;80.36
55263;BME280;41125;48.752;9.168;2023-01-29T01:44:54;97902.44;;;-1.29;80.60
55263;BME280;41125;48.752;9.168;2023-01-29T01:45:35;97904.06;;;-1.28;80.65
55263;BME280;41125;48.752;9.168;2023-01-29T01:46:06;97908.00;;;-1.24;80.27
55263;BME280;41125;48.752;9.168;2023-01-29T01:46:41;97904.72;;;-1.26;80.45
55263;BME280;41125;48.752;9.168;2023-01-29T01:47:13;97905.09;;;-1.29;80.46
55263;BME280;41125;48.752;9.168;2023-01-29T01:47:50;97907.13;;;-1.31;80.44
55263;BME280;41125;48.752;9.168;2023-01-29T01:48:24;97900.41;;;-1.27;80.42
55263;BME280;41125;48.752;9.168;2023-01-29T01:49:09;97899.00;;;-1.23;80.17
55263;BME280;41125;48.752;9.168;2023-01-29T01:49:43;97898.19;;;-1.24;79.85
55263;BME280;41125;48.752;9.168;2023-01-29T01:50:30;97897.94;;;-1.29;79.95
55263;BME280;41125;48.752;9.168;2023-01-29T01:51:04;97900.16;;;-1.32;80.07
55263;BME280;41125;48.752;9.168;2023-01-29T01:51:42;97899.91;;;-1.38;80.19
55263;BME280;41125;48.752;9.168;2023-01-29T01:52:18;97899.50;;;-1.41;80.36
55263;BME280;41125;48.752;9.168;2023-01-29T01:52:54;97905.37;;;-1.46;80.75
55263;BME280;41125;48.752;9.168;2023-01-29T01:53:37;97904.13;;;-1.50;80.63
55263;BME280;41125;48.752;9.168;2023-01-29T01:54:20;97902.84;;;-1.54;81.10
55263;BME280;41125;48.752;9.168;2023-01-29T01:54:53;97897.91;;;-1.57;81.13
55263;BME280;41125;48.752;9.168;2023-01-29T01:55:27;97894.62;;;-1.59;81.22
55263;BME280;41125;48.752;9.168;2023-01-29T01:56:05;97896.25;;;-1.58;81.49
55263;BME280;41125;48.752;9.168;2023-01-29T01:56:41;97898.53;;;-1.55;81.94
55263;BME280;41125;48.752;9.168;2023-01-29T01:57:18;97894.03;;;-1.54;81.61
55263;BME280;41125;48.752;9.168;2023-01-29T01:57:58;97898.53;;;-1.55;81.80
55263;BME280;41125;48.752;9.168;2023-01-29T01:58:52;97894.22;;;-1.56;82.11
55263;BME280;41125;48.752;9.168;2023-01-29T01:59:23;97892.59;;;-1.57;82.10
55263;BME280;41125;48.752;9.168;2023-01-29T02:00:03;97901.22;;;-1.55;81.99
55263;BME280;41125;48.752;9.168;2023-01-29T02:00:41;97901.22;;;-1.55;82.23
55263;BME280;41125;48.752;9.168;2023-01-29T02:01:12;97893.59;;;-1.58;81.82
55263;BME280;41125;48.752;9.168;2023-01-29T02:01:47;97901.22;;;-1.55;82.18
55263;BME280;41125;48.752;9.168;2023-01-29T02:02:21;97902.84;;;-1.54;81.72
55263;BME280;41125;48.752;9.168;2023-01-29T02:03:10;97895.88;;;-1.55;81.84
55263;BME280;41125;48.752;9.168;2023-01-29T02:04:18;97906.53;;;-1.55;81.82
55263;BME280;41125;48.752;9.168;2023-01-29T02:05:10;97898.94;;;-1.58;81.81
55263;BME280;41125;48.752;9.168;2023-01-29T02:06:01;97899.31;;;-1.61;81.66
55263;BME280;41125;48.752;9.168;2023-01-29T02:06:51;97904.13;;;-1.71;81.24
55263;BME280;41125;48.752;9.168;2023-01-29T02:07:45;97903.06;;;-1.77;81.98
55263;BME280;41125;48.752;9.168;2023-01-29T02:08:48;97896.28;;;-1.79;82.45
55263;BME280;41125;48.752;9.168;2023-01-29T02:10:41;97893.72;;;-1.66;82.85
55263;BME280;41125;48.752;9.168;2023-01-29T02:11:13;97898.94;;;-1.58;82.46
55263;BME280;41125;48.752;9.168;2023-01-29T02:11:49;97899.19;;;-1.53;82.06
55263;BME280;41125;48.752;9.168;2023-01-29T02:12:22;97897.59;;;-1.47;81.25
55263;BME280;41125;48.752;9.168;2023-01-29T02:12:54;97903.75;;;-1.47;81.02
55263;BME280;41125;48.752;9.168;2023-01-29T02:13:25;97898.78;;;-1.50;81.19
55263;BME280;41125;48.752;9.168;2023-01-29T02:13:58;97904.50;;;-1.53;81.46
55263;BME280;41125;48.752;9.168;2023-01-29T02:14:31;97902.84;;;-1.54;81.27
55263;BME280;41125;48.752;9.168;2023-01-29T02:15:09;97905.50;;;-1.54;81.89
55263;BME280;41125;48.752;9.168;2023-01-29T02:15:41;97909.00;;;-1.53;81.54
55263;BME280;41125;48.752;9.168;2023-01-29T02:16:16;97913.50;;;-1.54;81.60
55263;BME280;41125;48.752;9.168;2023-01-29T02:16:48;97909.19;;;-1.55;81.43
55263;BME280;41125;48.752;9.168;2023-01-29T02:17:28;97909.38;;;-1.56;81.69
55263;BME280;41125;48.752;9.168;2023-01-29T02:18:00;97910.41;;;-1.57;81.42
55263;BME280;41125;48.752;9.168;2023-01-29T02:18:32;97919.59;;;-1.60;81.73
55263;BME280;41125;48.752;9.168;2023-01-29T02:20:22;97911.72;;;-1.68;81.58
55263;BME280;41125;48.752;9.168;2023-01-29T02:21:19;97909.84;;;-1.74;81.52
55263;BME280;41125;48.752;9.168;2023-01-29T02:25:08;97915.91;;;-1.80;82.48
55263;BME280;41125;48.752;9.168;2023-01-29T02:26:18;97912.87;;;-1.77;82.53
55263;BME280;41125;48.752;9.168;2023-01-29T02:30:40;97904.06;;;-1.56;80.81
55263;BME280;41125;48.752;9.168;2023-01-29T02:31:37;97905.25;;;-1.59;80.84
55263;BME280;41125;48.752;9.168;2023-01-29T02:32:30;97915.09;;;-1.59;80.99
55263;BME280;41125;48.752;9.168;2023-01-29T02:33:47;97914.06;;;-1.58;81.15
55263;BME280;41125;48.752;9.168;2023-01-29T02:36:20;97914.75;;;-1.50;80.28
55263;BME280;41125;48.752;9.168;2023-01-29T02:37:03;97913.19;;;-1.44;79.66
55263;BME280;41125;48.752;9.168;2023-01-29T02:37:44;97911.53;;;-1.45;79.50
55263;BME280;41125;48.752;9.168;2023-01-29T02:38:33;97918.06;;;-1.48;79.84
55263;BME280;41125;48.752;9.168;2023-01-29T02:39:36;97907.53;;;-1.56;79.90
55263;BME280;41125;48.752;9.168;2023-01-29T02:40:35;97905.31;;;-1.52;79.62
55263;BME280;41125;48.752;9.168;2023-01-29T02:41:42;97905.69;;;-1.55;79.85
55263;BME280;41125;48.752;9.168;2023-01-29T02:42:43;97904.81;;;-1.62;79.67
55263;BME280;41125;48.752;9.168;2023-01-29T02:43:47;97899.94;;;-1.59;80.14
55263;BME280;41125;48.752;9.168;2023-01-29T02:44:49;97904.81;;;-1.62;80.02
55263;BME280;41125;48.752;9.168;2023-01-29T02:45:37;97908.44;;;-1.70;79.54
55263;BME280;41125;48.752;9.168;2023-01-29T02:48:25;97912.37;;;-1.87;81.15
55263;BME280;41125;48.752;9.168;2023-01-29T02:49:45;97907.78;;;-1.93;81.36
55263;BME280;41125;48.752;9.168;2023-01-29T02:50:30;97912.03;;;-1.99;81.92
55263;BME280;41125;48.752;9.168;2023-01-29T02:51:16;97917.91;;;-2.04;82.04
55263;BME280;41125;48.752;9.168;2023-01-29T02:52:25;97911.13;;;-2.06;82.13
55263;BME280;41125;48.752;9.168;2023-01-29T02:53:16;97910.31;;;-2.07;82.32
55263;BME280;41125;48.752;9.168;2023-01-29T02:55:05;97910.31;;;-2.07;82.48
55263;BME280;41125;48.752;9.168;2023-01-29T02:55:54;97905.63;;;-2.05;82.57
55263;BME280;41125;48.752;9.168;2023-01-29T02:56:39;97906.44;;;-2.04;82.28
55263;BME280;41125;48.752;9.168;2023-01-29T02:57:26;97901.12;;;-2.04;82.21
55263;BME280;41125;48.752;9.168;2023-01-29T02:59:16;97900.13;;;-2.03;82.26
55263;BME280;41125;48.752;9.168;2023-01-29T02:59:59;97906.00;;;-2.08;81.85
55263;BME280;41125;48.752;9.168;2023-01-29T03:00:37;97902.72;;;-2.10;81.86
55263;BME280;41125;48.752;9.168;2023-01-29T03:01:27;97906.41;;;-2.11;81.83
55263;BME280;41125;48.752;9.168;2023-01-29T03:02:16;97902.72;;;-2.10;81.87
55263;BME280;41125;48.752;9.168;2023-01-29T03:02:57;97903.56;;;-2.09;82.38
55263;BME280;41125;48.752;9.168;2023-01-29T03:03:39;97899.06;;;-2.09;82.29
55263;BME280;41125;48.752;9.168;2023-01-29T03:04:17;97897.81;;;-2.06;82.62
55263;BME280;41125;48.752;9.168;2023-01-29T03:04:54;97905.63;;;-2.05;82.80
55263;BME280;41125;48.752;9.168;2023-01-29T03:05:59;97899.94;;;-2.02;82.66
55263;BME280;41125;48.752;9.168;2023-01-29T03:06:56;97899.75;;;-2.00;83.02
55263;BME280;41125;48.752;9.168;2023-01-29T03:07:34;97894.41;;;-2.00;82.60
55263;BME280;41125;48.752;9.168;2023-01-29T03:08:24;97896.91;;;-1.98;82.48
55263;BME280;41125;48.752;9.168;2023-01-29T03:09:13;97901.56;;;-2.00;82.94
55263;BME280;41125;48.752;9.168;2023-01-29T03:09:48;97901.56;;;-2.00;82.96
55263;BME280;41125;48.752;9.168;2023-01-29T03:11:40;97899.81;;;-1.93;82.90
55263;BME280;41125;48.752;9.168;2023-01-29T03:12:19;97905.78;;;-1.91;82.79
55263;BME280;41125;48.752;9.168;2023-01-29T03:13:24;97905.78;;;-1.91;82.58
55263;BME280;41125;48.752;9.168;2023-01-29T03:14:07;97903.09;;;-1.91;82.46
55263;BME280;41125;48.752;9.168;2023-01-29T03:14:46;97904.94;;;-1.92;82.47
55263;BME280;41125;48.752;9.168;2023-01-29T03:15:42;97906.59;;;-1.91;82.64
55263;BME280;41125;48.752;9.168;2023-01-29T03:16:54;97909.44;;;-1.92;82.46
55263;BME280;41125;48.752;9.168;2023-01-29T03:17:31;97903.09;;;-1.91;82.78
55263;BME280;41125;48.752;9.168;2023-01-29T03:18:13;97902.91;;;-1.90;82.68
55263;BME280;41125;48.752;9.168;2023-01-29T03:20:10;97903.75;;;-1.89;82.75
55263;BME280;41125;48.752;9.168;2023-01-29T03:20:52;97895.75;;;-1.89;82.94
55263;BME280;41125;48.752;9.168;2023-01-29T03:21:29;97901.72;;;-1.87;82.83
55263;BME280;41125;48.752;9.168;2023-01-29T03:22:24;97899.06;;;-1.87;82.50
55263;BME280;41125;48.752;9.168;2023-01-29T03:23:12;97905.41;;;-1.88;82.63
55263;BME280;41125;48.752;9.168;2023-01-29T03:23:45;97902.72;;;-1.88;82.71
55263;BME280;41125;48.752;9.168;2023-01-29T03:24:44;97903.75;;;-1.89;82.50
55263;BME280;41125;48.752;9.168;2023-01-29T03:25:35;97903.28;;;-1.93;81.98
55263;BME280;41125;48.752;9.168;2023-01-29T03:26:27;97894.88;;;-1.96;82.06
55263;BME280;41125;48.752;9.168;2023-01-29T03:27:19;97897.53;;;-1.96;82.30
55263;BME280;41125;48.752;9.168;2023-01-29T03:28:12;97899.19;;;-1.95;82.96
55263;BME280;41125;48.752;9.168;2023-01-29T03:29:04;97906.16;;;-1.94;83.07
55263;BME280;41125;48.752;9.168;2023-01-29T03:29:56;97895.50;;;-1.94;82.81
55263;BME280;41125;48.752;9.168;2023-01-29T03:30:51;97895.50;;;-1.94;82.59
55263;BME280;41125;48.752;9.168;2023-01-29T03:31:42;97899.19;;;-1.95;82.62
55263;BME280;41125;48.752;9.168;2023-01-29T03:32:31;97900.00;;;-1.95;82.91
55263;BME280;41125;48.752;9.168;2023-01-29T03:33:08;97900.81;;;-1.94;82.86
55263;BME280;41125;48.752;9.168;2023-01-29T03:35:04;97898.16;;;-1.94;83.01
55263;BME280;41125;48.752;9.168;2023-01-29T03:35:46;97905.13;;;-1.93;83.08
55263;BME280;41125;48.752;9.168;2023-01-29T03:36:36;97904.94;;;-1.92;82.65
55263;BME280;41125;48.752;9.168;2023-01-29T03:37:26;97904.13;;;-1.92;82.82
55263;BME280;41125;48.752;9.168;2023-01-29T03:38:00;97904.94;;;-1.92;82.84
55263;BME280;41125;48.752;9.168;2023-01-29T03:38:32;97901.47;;;-1.92;82.82
55263;BME280;41125;48.752;9.168;2023-01-29T03:39:08;97901.28;;;-1.91;82.54
55263;BME280;41125;48.752;9.168;2023-01-29T03:39:41;97905.78;;;-1.91;82.62
55263;BME280;41125;48.752;9.168;2023-01-29T03:40:14;97897.97;;;-1.93;82.68
55263;BME280;41125;48.752;9.168;2023-01-29T03:41:07;97898.81;;;-1.92;82.40
55263;BME280;41125;48.752;9.168;2023-01-29T03:42:04;97900.44;;;-1.91;82.66
55263;BME280;41125;48.752;9.168;2023-01-29T03:43:10;97901.28;;;-1.91;82.83